153 км

Карта отелей и гостиниц, располагающихся рядом с аэропортом 153 км :

153 км Красноярский край 69° 28' 9.3612" N, 85° 56' 26.88" E
153 км Красноярский край 69° 28' 9.3612" N, 85° 56' 26.88" E
Код аэродрома ИКАО
HDT5
Код аэродрома RU
ХДТ5
Координаты
N69.46927° E085.94080°
Превышение над уровнем моря
25
Основная полоса
Курс магнитный
Длина основной ВПП
Ширина основной ВПП
Покрытие основной ВПП
Освещение ВПП
Тип: 
Вертодром
Класс аэродрома: 
Принадлежность: 
ГА
Статус: 
Действующий
Сайт: 
E-mail аэродрома: 
Страна: 
Россия
Регион: 
Красноярский край
Город: 
Дополнительная информация: 

Найти трансфер

С помощью этой формы Вы можете найти трансфер из аэропорта 153 км в город, аэропорт или вокзал:

Карта места

Javascript is required to view this map.

Погода в аэропортах:

Авиационная погода в Борисполе

Регион: 
Погода METAR: 
UKBB 251830Z 14009MPS 7000 -RA SCT005 BKN014 07/06 Q0994 R18L/290050 TEMPO 15011G16MPS
Время наблюдения
2021-01-25T18:30:00Z
Температура C
7.0
Точка росы
6.0
Направление ветра
140
Скорость ветра (узлы)
17
Метео видимость
4.35
Явления погоды
-RA
Условия полета
MVFR
Аэропорт подробнее: 

Авиационная погода в Вардё

Регион: 
Погода METAR: 
ENSS 251850Z 11022KT 6000 -SN DRSN BKN009 M01/M02 Q1007 RMK WIND 500FT 09032KT
Время наблюдения
2021-01-25T18:50:00Z
Температура C
-1.0
Точка росы
-2.0
Направление ветра
110
Скорость ветра (узлы)
22
Метео видимость
3.73
Явления погоды
-SN DRSN
Условия полета
IFR

Авиационная погода в Берлевоге

Регион: 
Погода METAR: 
ENBV 251850Z 10025KT 4000 SHSN SCT012 BKN021 M02/M05 Q1007
Время наблюдения
2021-01-25T18:50:00Z
Температура C
-2.0
Точка росы
-5.0
Направление ветра
100
Скорость ветра (узлы)
25
Метео видимость
2.49
Явления погоды
SHSN
Условия полета
IFR

Авиационная погода в Уральске

Регион: 
Погода METAR: 
UARR 251833Z 18008MPS 4000 -SG BR OVC003 M04/M04 Q1031 R22/390045 TEMPO 2000 BR RMK QBB110 QFE769/1026
Время наблюдения
2021-01-25T18:33:00Z
Температура C
-4.0
Точка росы
-4.0
Направление ветра
180
Скорость ветра (узлы)
16
Метео видимость
2.49
Явления погоды
-SG BR
Условия полета
LIFR
Аэропорт подробнее: